Time;durP1;ratioP1;P1;durP2;ratioP2;P2;SDS_P1;SDS_P2;PMS_P1;PMS_P2;Temp;Humidity;BMP_temperature;BMP_pressure;BME280_temperature;BME280_humidity;BME280_pressure;Samples;Min_cycle;Max_cycle;Signal;HPM_P1;HPM_P2
2022/04/06 00:00:38;;;;;;;17.60;9.40;;;7.80;99.90;;;;;;6110427;23;20017;-89
2022/04/06 00:07:28;;;;;;;13.57;7.93;;;7.10;99.90;;;;;;6185401;23;20087;-90
2022/04/06 00:17:17;;;;;;;12.13;6.05;;;7.80;99.90;;;;;;6184863;23;19994;-89
2022/04/06 00:23:26;;;;;;;;;;;7.80;99.90;;;;;;6186015;23;20008;-89
2022/04/06 00:25:55;;;;;;;11.88;6.60;;;7.00;99.90;;;;;;6109666;23;19916;-89
2022/04/06 00:28:21;;;;;;;17.55;6.93;;;7.90;99.90;;;;;;6110564;23;20020;-89
2022/04/06 00:31:25;;;;;;;18.60;8.10;;;7.80;99.90;;;;;;6136025;23;20426;-89
2022/04/06 00:37:44;;;;;;;;;;;7.90;99.90;;;;;;6185894;23;20019;-89
2022/04/06 00:44:20;;;;;;;12.88;7.22;;;7.40;99.90;;;;;;6215498;23;20012;-89
2022/04/06 00:50:58;;;;;;;;;;;8.00;99.90;;;;;;6216022;23;20011;-89
2022/04/06 00:53:40;;;;;;;23.63;8.02;;;7.90;99.90;;;;;;6163414;23;20387;-89
2022/04/06 01:01:06;;;;;;;11.30;5.82;;;7.90;99.90;;;;;;6066830;23;20090;-90
2022/04/06 01:07:30;;;;;;;12.27;6.97;;;8.00;99.90;;;;;;6065612;23;20364;-90
2022/04/06 01:09:58;;;;;;;13.75;7.82;;;8.00;99.90;;;;;;6142909;23;20305;-90
2022/04/06 01:34:38;;;;;;;13.10;7.55;;;8.00;99.90;;;;;;6096152;23;20018;-89
2022/04/06 01:45:06;;;;;;;14.25;7.45;;;8.00;99.90;;;;;;6096005;23;20050;-90
2022/04/06 01:47:39;;;;;;;13.50;7.57;;;7.90;99.90;;;;;;6054938;23;20459;-91
2022/04/06 01:53:59;;;;;;;18.42;8.63;;;7.90;99.90;;;;;;6011620;23;20345;-89
2022/04/06 02:15:49;;;;;;;7.88;5.43;;;8.00;99.90;;;;;;6125107;23;20383;-90
2022/04/06 02:18:19;;;;;;;9.70;5.63;;;7.00;99.90;;;;;;6100591;23;20387;-90
2022/04/06 02:31:25;;;;;;;13.02;5.50;;;7.90;99.90;;;;;;6161242;23;19973;-90
2022/04/06 02:34:21;;;;;;;;;;;7.90;99.90;;;;;;6076187;23;20018;-90
2022/04/06 02:40:39;;;;;;;14.52;4.97;;;7.90;99.90;;;;;;6095164;23;20028;-90
2022/04/06 02:43:32;;;;;;;9.27;5.15;;;7.00;99.90;;;;;;6025684;23;20022;-90
2022/04/06 02:50:01;;;;;;;7.75;3.78;;;7.90;99.90;;;;;;6095318;23;20506;-90
2022/04/06 03:08:02;;;;;;;6.80;4.25;;;7.90;99.90;;;;;;6011429;23;20354;-90
2022/04/06 03:22:36;;;;;;;;;;;;;;;;;;;;;
2022/04/06 03:28:47;;;;;;;14.35;4.93;;;7.80;99.90;;;;;;6095026;23;20037;-90
2022/04/06 03:31:51;;;;;;;12.30;4.95;;;7.90;99.90;;;;;;6139806;23;20074;-90
2022/04/06 03:34:29;;;;;;;;;;;;;;;;;;;;;
2022/04/06 03:37:40;;;;;;;;;;;;;;;;;;;;;
2022/04/06 03:40:32;;;;;;;12.13;5.18;;;7.10;99.90;;;;;;6188602;23;20051;-91
2022/04/06 03:46:29;;;;;;;12.57;5.80;;;7.20;99.90;;;;;;6216153;23;20074;-90
2022/04/06 03:56:21;;;;;;;14.43;5.45;;;7.90;99.90;;;;;;6130833;23;20023;-90
2022/04/06 03:59:23;;;;;;;13.18;5.50;;;8.00;99.90;;;;;;6189347;23;20039;-91
2022/04/06 04:01:55;;;;;;;17.42;5.38;;;8.00;99.90;;;;;;6145473;23;20028;-91
2022/04/06 04:04:47;;;;;;;14.07;7.50;;;8.90;99.90;;;;;;6094487;23;20018;-90
2022/04/06 04:11:24;;;;;;;13.13;6.72;;;7.90;99.90;;;;;;6188828;23;20052;-90
2022/04/06 04:13:55;;;;;;;11.10;7.18;;;8.00;99.90;;;;;;6164890;23;20368;-91
2022/04/06 04:20:17;;;;;;;9.30;6.00;;;8.10;99.90;;;;;;6068359;23;20066;-90
2022/04/06 04:26:38;;;;;;;8.35;6.28;;;8.10;99.90;;;;;;6013084;23;20071;-91
2022/04/06 04:29:11;;;;;;;13.88;7.07;;;8.30;99.90;;;;;;6069486;23;20110;-90
2022/04/06 04:32:07;;;;;;;10.15;6.88;;;8.10;99.90;;;;;;6070035;23;20018;-90
2022/04/06 04:35:32;;;;;;;;;;;;;;;;;;;;;
2022/04/06 04:38:29;;;;;;;10.60;5.82;;;8.10;99.90;;;;;;6070389;23;20093;-90
2022/04/06 04:41:08;;;;;;;9.23;4.85;;;8.00;99.90;;;;;;6045606;23;20121;-89
2022/04/06 04:43:35;;;;;;;12.95;6.20;;;8.10;99.90;;;;;;6114230;23;20032;-90
2022/04/06 04:46:01;;;;;;;10.88;5.97;;;8.10;99.90;;;;;;6161762;23;20100;-93
2022/04/06 04:48:27;;;;;;;9.82;5.40;;;8.00;99.90;;;;;;6165848;23;20020;-94
2022/04/06 04:50:56;;;;;;;10.90;4.75;;;8.00;99.90;;;;;;6186753;23;20075;-91
2022/04/06 04:53:23;;;;;;;12.20;5.63;;;8.00;99.90;;;;;;6162785;23;20480;-93
2022/04/06 04:55:49;;;;;;;12.55;5.13;;;8.40;99.90;;;;;;6164429;23;20255;-94
2022/04/06 04:58:18;;;;;;;12.43;4.23;;;7.90;99.90;;;;;;6139309;23;20108;-94
2022/04/06 05:00:43;;;;;;;12.38;5.90;;;7.90;99.90;;;;;;6189371;23;20520;-96
2022/04/06 05:03:09;;;;;;;6.93;4.40;;;8.00;99.90;;;;;;6188518;23;20017;-91
2022/04/06 05:05:43;;;;;;;14.20;5.60;;;8.00;99.90;;;;;;6188543;23;20083;-89
2022/04/06 05:08:14;;;;;;;10.15;4.90;;;7.90;99.90;;;;;;6163487;23;20023;-89
2022/04/06 05:10:48;;;;;;;9.30;4.80;;;7.90;99.90;;;;;;6141391;23;20066;-88
2022/04/06 05:13:14;;;;;;;7.78;4.20;;;7.80;99.90;;;;;;6139752;23;20515;-88
2022/04/06 05:15:40;;;;;;;12.23;4.00;;;7.50;99.90;;;;;;6188482;23;20103;-90
2022/04/06 05:18:09;;;;;;;8.90;3.60;;;7.80;99.90;;;;;;6187899;23;20244;-93
2022/04/06 05:20:34;;;;;;;10.43;3.17;;;7.80;99.90;;;;;;6163665;23;20017;-92
2022/04/06 05:23:00;;;;;;;7.67;3.67;;;7.80;99.90;;;;;;6188361;23;20051;-89
2022/04/06 05:25:26;;;;;;;7.47;2.70;;;7.80;99.90;;;;;;6188280;23;20013;-84
2022/04/06 05:27:54;;;;;;;5.63;2.87;;;7.80;99.90;;;;;;6163556;23;20094;-85
2022/04/06 05:30:24;;;;;;;6.10;3.00;;;7.70;99.90;;;;;;6187211;23;20101;-86
2022/04/06 05:32:55;;;;;;;5.93;3.50;;;7.70;99.90;;;;;;6163923;23;20453;-85
2022/04/06 05:35:23;;;;;;;8.52;3.25;;;7.70;99.90;;;;;;6186921;23;20051;-85
2022/04/06 05:37:50;;;;;;;7.03;3.40;;;7.70;99.90;;;;;;6188865;23;20027;-85
2022/04/06 05:40:19;;;;;;;3.47;3.00;;;7.70;99.90;;;;;;6186895;23;20071;-86
2022/04/06 05:42:46;;;;;;;5.03;2.90;;;7.70;99.90;;;;;;6138697;23;20520;-87
2022/04/06 05:45:12;;;;;;;3.03;2.33;;;7.70;99.90;;;;;;6187468;23;20456;-86
2022/04/06 05:47:38;;;;;;;9.07;3.58;;;7.70;99.90;;;;;;6188042;23;20104;-86
2022/04/06 05:50:05;;;;;;;6.00;2.57;;;7.70;99.90;;;;;;6162567;23;20465;-89
2022/04/06 05:52:32;;;;;;;2.47;2.28;;;7.70;99.90;;;;;;6163296;23;20027;-87
2022/04/06 05:54:57;;;;;;;7.15;2.60;;;7.70;99.90;;;;;;6188246;23;20114;-86
2022/04/06 05:57:23;;;;;;;3.97;3.03;;;7.70;99.90;;;;;;6162604;23;20025;-86
2022/04/06 05:59:49;;;;;;;7.03;3.30;;;7.70;99.90;;;;;;6163024;23;20024;-86
2022/04/06 06:02:15;;;;;;;8.67;3.27;;;7.70;99.90;;;;;;6162569;23;20216;-87
2022/04/06 06:04:41;;;;;;;6.70;2.87;;;7.60;99.90;;;;;;6162774;23;20016;-86
2022/04/06 06:07:08;;;;;;;8.05;3.08;;;7.70;99.90;;;;;;6187364;23;20117;-87
2022/04/06 06:09:37;;;;;;;5.55;3.05;;;7.70;99.90;;;;;;6163521;23;20040;-86
2022/04/06 06:12:03;;;;;;;3.03;2.50;;;7.70;99.90;;;;;;6187944;23;20020;-87
2022/04/06 06:14:29;;;;;;;8.75;3.17;;;7.70;99.90;;;;;;6162717;23;20028;-86
2022/04/06 06:16:55;;;;;;;3.97;2.73;;;7.70;99.90;;;;;;6138759;23;20009;-86
2022/04/06 06:19:21;;;;;;;4.83;3.57;;;7.70;99.90;;;;;;6187244;23;20047;-86
2022/04/06 06:21:50;;;;;;;5.93;2.83;;;7.70;99.90;;;;;;6163464;23;20012;-87
2022/04/06 06:24:15;;;;;;;6.30;3.47;;;7.60;99.90;;;;;;6138108;23;20513;-86
2022/04/06 06:26:44;;;;;;;8.40;3.50;;;7.60;99.90;;;;;;6163132;23;20075;-86
2022/04/06 06:29:11;;;;;;;6.82;3.22;;;7.60;99.90;;;;;;6162492;23;20041;-87
2022/04/06 06:31:37;;;;;;;3.13;2.67;;;7.50;99.90;;;;;;6187616;23;20055;-87
2022/04/06 06:34:05;;;;;;;4.07;2.83;;;7.60;99.90;;;;;;6162760;23;20013;-86
2022/04/06 06:36:34;;;;;;;4.65;3.00;;;7.60;99.90;;;;;;6162077;23;20255;-87
2022/04/06 06:39:00;;;;;;;6.95;2.97;;;7.60;99.90;;;;;;6187696;23;20020;-87
2022/04/06 06:41:26;;;;;;;8.40;3.60;;;7.50;99.90;;;;;;6161959;23;20327;-87
2022/04/06 06:43:53;;;;;;;2.57;2.10;;;8.10;99.90;;;;;;6187609;23;20027;-87
2022/04/06 06:46:25;;;;;;;6.22;2.53;;;7.50;99.90;;;;;;6186900;23;20016;-87
2022/04/06 06:49:00;;;;;;;3.78;2.25;;;7.40;99.90;;;;;;6162994;23;20349;-87
2022/04/06 06:51:28;;;;;;;4.05;2.70;;;7.50;99.90;;;;;;6186872;23;20009;-87
2022/04/06 06:53:54;;;;;;;6.80;2.53;;;7.50;99.90;;;;;;6187763;23;20095;-87
2022/04/06 06:56:20;;;;;;;8.00;3.00;;;7.50;99.90;;;;;;6186879;23;20400;-87
2022/04/06 06:58:48;;;;;;;4.13;2.70;;;7.50;99.90;;;;;;6187374;23;20052;-87
2022/04/06 07:01:14;;;;;;;4.07;2.65;;;7.60;99.90;;;;;;6161515;23;20019;-88
2022/04/06 07:03:40;;;;;;;5.30;2.67;;;7.50;99.90;;;;;;6162041;23;20345;-87
2022/04/06 07:06:08;;;;;;;3.93;2.07;;;7.50;99.90;;;;;;6162727;23;20013;-88
2022/04/06 07:08:34;;;;;;;3.38;2.35;;;7.50;99.90;;;;;;6161894;23;20220;-88
2022/04/06 07:11:00;;;;;;;2.97;2.20;;;7.50;99.90;;;;;;6187558;23;20412;-87
2022/04/06 07:13:25;;;;;;;6.30;3.00;;;7.60;99.90;;;;;;6186640;23;20464;-87
2022/04/06 07:15:53;;;;;;;4.40;2.87;;;7.60;99.90;;;;;;6213714;23;20091;-94
2022/04/06 07:18:21;;;;;;;9.88;2.83;;;7.60;99.90;;;;;;6162652;23;20079;-95
2022/04/06 07:20:50;;;;;;;7.43;3.05;;;7.50;99.90;;;;;;6163173;23;20107;-88
2022/04/06 07:23:16;;;;;;;3.72;2.67;;;7.60;99.90;;;;;;6186734;23;20017;-89
2022/04/06 07:25:41;;;;;;;3.20;2.37;;;7.50;99.90;;;;;;6187190;23;20104;-89
2022/04/06 07:28:10;;;;;;;3.40;2.67;;;7.50;99.90;;;;;;6187449;23;20017;-89
2022/04/06 07:30:38;;;;;;;6.03;2.70;;;7.60;99.90;;;;;;6186951;23;20070;-88
2022/04/06 07:33:04;;;;;;;4.13;3.05;;;7.50;99.90;;;;;;6187400;23;20024;-88
2022/04/06 07:35:47;;;;;;;10.87;4.10;;;7.00;99.90;;;;;;6162085;23;20020;-89
2022/04/06 07:38:21;;;;;;;8.27;3.17;;;6.70;99.90;;;;;;6187282;23;20301;-89
2022/04/06 07:40:50;;;;;;;7.43;3.70;;;8.40;99.90;;;;;;6162538;23;20445;-86
2022/04/06 07:43:20;;;;;;;5.55;3.22;;;7.60;99.90;;;;;;6186566;23;20024;-90
2022/04/06 07:45:46;;;;;;;7.75;2.63;;;7.50;99.90;;;;;;6214000;23;20052;-87
2022/04/06 07:48:11;;;;;;;8.30;3.35;;;7.10;99.90;;;;;;6161251;23;20083;-87
2022/04/06 07:50:37;;;;;;;7.00;4.00;;;7.60;99.90;;;;;;6161433;23;20029;-88
2022/04/06 07:53:03;;;;;;;12.53;3.97;;;7.60;99.90;;;;;;6162809;23;20012;-87
2022/04/06 07:55:29;;;;;;;11.00;3.67;;;7.60;99.90;;;;;;6186754;23;20104;-86
2022/04/06 07:57:55;;;;;;;8.63;3.13;;;7.60;99.90;;;;;;6162369;23;20023;-86
2022/04/06 08:00:21;;;;;;;5.47;2.93;;;7.70;99.90;;;;;;6137190;23;20021;-90
2022/04/06 08:02:50;;;;;;;8.30;3.00;;;7.70;99.90;;;;;;6162193;23;20022;-87
2022/04/06 08:05:18;;;;;;;10.20;3.70;;;7.80;99.90;;;;;;6161542;23;20017;-86
2022/04/06 08:07:44;;;;;;;3.58;2.80;;;7.80;99.90;;;;;;6161137;23;20017;-86
2022/04/06 08:10:15;;;;;;;5.45;2.92;;;7.80;99.90;;;;;;6186931;23;20020;-87
2022/04/06 08:12:52;;;;;;;9.80;3.95;;;7.80;99.90;;;;;;6186688;23;20055;-87
2022/04/06 08:15:25;;;;;;;5.63;3.13;;;7.80;99.90;;;;;;6162220;23;20023;-87
2022/04/06 08:17:53;;;;;;;7.22;3.50;;;7.80;99.90;;;;;;6161971;23;20448;-87
2022/04/06 08:20:22;;;;;;;6.03;3.50;;;7.90;99.90;;;;;;6163069;23;20079;-87
2022/04/06 08:22:50;;;;;;;10.45;3.92;;;7.80;99.90;;;;;;6163134;23;20071;-86
2022/04/06 08:25:18;;;;;;;8.55;4.20;;;7.90;99.90;;;;;;6192761;23;20040;-89
2022/04/06 08:27:44;;;;;;;8.02;3.88;;;7.90;99.90;;;;;;6186847;23;20091;-89
2022/04/06 08:30:39;;;;;;;8.45;3.35;;;7.90;99.90;;;;;;6163160;23;20016;-89
2022/04/06 08:33:06;;;;;;;7.25;3.50;;;7.90;99.90;;;;;;6162455;23;20016;-88
2022/04/06 08:35:34;;;;;;;5.97;3.63;;;7.90;99.90;;;;;;6161893;23;20043;-88
2022/04/06 08:38:00;;;;;;;4.88;3.22;;;7.90;99.90;;;;;;6161963;23;20070;-88
2022/04/06 08:40:26;;;;;;;10.60;5.27;;;7.10;99.90;;;;;;6136955;23;20084;-89
2022/04/06 08:42:52;;;;;;;5.35;3.65;;;7.90;99.90;;;;;;6161353;23;20024;-88
2022/04/06 08:45:18;;;;;;;8.27;4.43;;;7.90;99.90;;;;;;6161935;23;20080;-88
2022/04/06 08:47:51;;;;;;;6.67;4.17;;;8.00;99.90;;;;;;6164687;23;20183;-87
2022/04/06 08:50:18;;;;;;;7.90;4.25;;;8.00;99.90;;;;;;6187447;23;20013;-88
2022/04/06 08:52:45;;;;;;;6.47;3.63;;;8.10;99.90;;;;;;6186687;23;20092;-87
2022/04/06 08:55:13;;;;;;;8.82;4.53;;;8.00;99.90;;;;;;6162322;23;20476;-89
2022/04/06 08:57:41;;;;;;;6.20;4.82;;;8.00;99.90;;;;;;6186843;23;20051;-89
2022/04/06 09:00:07;;;;;;;5.97;3.38;;;8.00;99.90;;;;;;6187306;23;20017;-92
2022/04/06 09:02:33;;;;;;;10.07;3.97;;;8.00;99.90;;;;;;6213472;23;20052;-92
2022/04/06 09:05:02;;;;;;;9.37;3.47;;;8.50;99.90;;;;;;6186984;23;20055;-90
2022/04/06 09:07:31;;;;;;;9.55;3.70;;;8.00;99.90;;;;;;6161586;23;20056;-88
2022/04/06 09:10:00;;;;;;;6.88;3.50;;;8.00;99.90;;;;;;6163991;23;20052;-91
2022/04/06 09:12:26;;;;;;;7.80;2.83;;;8.10;99.90;;;;;;6163740;23;20459;-88
2022/04/06 09:15:04;;;;;;;6.35;3.00;;;8.10;99.90;;;;;;6186817;23;20059;-91
2022/04/06 09:17:30;;;;;;;5.35;2.95;;;8.20;99.90;;;;;;6186606;23;20461;-88
2022/04/06 09:19:59;;;;;;;5.60;3.10;;;8.30;99.90;;;;;;6163036;23;20021;-90
2022/04/06 09:22:25;;;;;;;4.15;3.38;;;8.40;99.90;;;;;;6187631;23;20016;-90
2022/04/06 09:25:00;;;;;;;5.77;2.97;;;8.40;99.90;;;;;;6186986;23;20100;-90
2022/04/06 09:27:33;;;;;;;7.85;3.10;;;8.50;99.90;;;;;;6187783;23;20040;-90
2022/04/06 09:30:02;;;;;;;4.38;2.83;;;8.60;99.90;;;;;;6162196;23;20024;-90
2022/04/06 09:32:28;;;;;;;4.22;3.15;;;8.60;99.90;;;;;;6162593;23;20058;-90
2022/04/06 09:34:53;;;;;;;4.40;2.80;;;8.60;99.90;;;;;;6112946;23;20025;-90
2022/04/06 09:37:27;;;;;;;3.20;2.23;;;8.50;99.90;;;;;;6138018;23;20027;-90
2022/04/06 09:39:56;;;;;;;3.55;2.70;;;8.60;99.90;;;;;;6214288;23;20021;-91
2022/04/06 09:42:27;;;;;;;4.35;2.97;;;8.60;99.90;;;;;;6164174;23;20021;-91
2022/04/06 09:47:42;;;;;;;7.13;3.35;;;8.60;99.90;;;;;;6188682;23;20076;-90
2022/04/06 09:50:09;;;;;;;8.68;2.80;;;8.60;99.90;;;;;;6165346;23;20092;-90
2022/04/06 09:52:36;;;;;;;3.13;2.85;;;8.60;99.90;;;;;;6188798;23;20017;-89
2022/04/06 09:55:06;;;;;;;6.22;2.65;;;8.60;99.90;;;;;;6188937;23;20385;-90
2022/04/06 09:57:47;;;;;;;5.00;3.25;;;8.70;99.90;;;;;;6164707;23;20052;-91
2022/04/06 10:00:18;;;;;;;7.28;2.92;;;8.70;99.90;;;;;;6164498;23;20059;-92
2022/04/06 10:02:50;;;;;;;4.13;3.10;;;8.80;99.90;;;;;;6164789;23;20059;-91
2022/04/06 10:05:18;;;;;;;11.15;3.83;;;8.90;99.90;;;;;;6190879;23;20016;-91
2022/04/06 10:07:45;;;;;;;4.60;3.25;;;8.90;99.90;;;;;;6164686;23;20055;-91
2022/04/06 10:10:12;;;;;;;5.88;3.60;;;8.90;99.90;;;;;;6165183;23;20020;-91
2022/04/06 10:12:38;;;;;;;6.63;3.33;;;8.90;99.90;;;;;;6165518;23;20066;-88
2022/04/06 10:15:06;;;;;;;5.20;3.05;;;8.90;99.90;;;;;;6189326;23;20017;-91
2022/04/06 10:17:32;;;;;;;9.73;3.78;;;8.90;99.90;;;;;;6164026;23;20048;-91
2022/04/06 10:20:17;;;;;;;4.25;3.13;;;8.90;99.90;;;;;;6187315;23;20044;-87
2022/04/06 10:23:04;;;;;;;4.47;3.53;;;8.90;99.90;;;;;;6186903;23;20024;-89
2022/04/06 10:25:56;;;;;;;9.15;4.15;;;8.90;99.90;;;;;;6162982;23;20017;-88
2022/04/06 10:28:22;;;;;;;6.63;3.97;;;8.90;99.90;;;;;;6188885;23;20017;-88
2022/04/06 10:31:15;;;;;;;6.53;4.33;;;8.90;99.90;;;;;;6187291;23;20071;-95
2022/04/06 10:33:41;;;;;;;8.18;3.67;;;8.90;99.90;;;;;;6162880;23;20016;-89
2022/04/06 10:36:30;;;;;;;8.23;3.47;;;9.00;99.90;;;;;;6187582;23;20062;-87
2022/04/06 10:39:22;;;;;;;7.47;4.40;;;9.00;99.90;;;;;;6162496;23;20040;-88
2022/04/06 10:42:36;;;;;;;6.82;4.03;;;9.00;99.90;;;;;;6180919;23;20017;-88
2022/04/06 10:45:05;;;;;;;9.93;4.35;;;9.00;99.90;;;;;;6162117;23;20111;-88
2022/04/06 10:47:32;;;;;;;6.18;5.45;;;9.00;99.90;;;;;;6188634;23;20111;-94
2022/04/06 10:50:13;;;;;;;8.60;4.38;;;9.00;99.90;;;;;;6187309;23;20121;-88
2022/04/06 10:52:39;;;;;;;9.88;4.68;;;9.00;99.90;;;;;;6187421;23;20012;-88
2022/04/06 10:55:20;;;;;;;6.40;4.00;;;9.00;99.90;;;;;;6187220;23;20051;-89
2022/04/06 10:58:04;;;;;;;8.52;4.50;;;8.90;99.90;;;;;;6161361;23;20103;-88
2022/04/06 11:00:31;;;;;;;9.23;4.47;;;8.90;99.90;;;;;;6138613;23;20020;-89
2022/04/06 11:03:18;;;;;;;6.10;5.53;;;9.00;99.90;;;;;;6162881;23;20017;-89
2022/04/06 11:05:52;;;;;;;6.38;4.25;;;9.00;99.90;;;;;;6163178;23;20441;-88
2022/04/06 11:12:04;;;;;;;4.97;3.67;;;9.00;99.90;;;;;;6188567;23;20496;-88
2022/04/06 11:14:29;;;;;;;5.72;4.40;;;9.10;99.90;;;;;;6167448;23;20074;-89
2022/04/06 11:16:55;;;;;;;6.57;4.43;;;9.00;99.90;;;;;;6138334;23;20020;-89
2022/04/06 11:19:21;;;;;;;8.83;5.00;;;9.10;99.90;;;;;;6163951;23;20075;-89
2022/04/06 11:21:51;;;;;;;7.37;5.60;;;9.10;99.90;;;;;;6187570;23;20115;-88
2022/04/06 11:24:28;;;;;;;8.30;5.03;;;9.10;99.90;;;;;;6188442;23;20034;-89
2022/04/06 11:26:54;;;;;;;6.72;4.90;;;9.20;99.90;;;;;;6163159;23;20078;-89
2022/04/06 11:29:27;;;;;;;10.85;4.78;;;9.20;99.90;;;;;;6164023;23;20393;-89
2022/04/06 11:31:54;;;;;;;6.75;4.25;;;9.20;99.90;;;;;;6162566;23;20020;-88
2022/04/06 11:34:36;;;;;;;;;;;9.30;99.90;;;;;;6164112;23;20039;-89
2022/04/06 11:37:03;;;;;;;5.32;4.38;;;9.30;99.90;;;;;;6187339;23;19954;-89
2022/04/06 11:39:30;;;;;;;7.93;4.93;;;9.40;99.90;;;;;;6187577;23;20019;-89
2022/04/06 11:41:56;;;;;;;;;;;9.40;99.90;;;;;;6162622;23;20450;-89
2022/04/06 11:44:24;;;;;;;5.05;4.55;;;9.40;99.90;;;;;;6163549;23;19983;-89
2022/04/06 11:46:51;;;;;;;7.10;5.55;;;9.50;99.90;;;;;;6162940;23;20013;-88
2022/04/06 11:49:24;;;;;;;12.93;4.90;;;9.60;99.90;;;;;;6138866;23;20405;-89
2022/04/06 11:51:54;;;;;;;15.45;5.90;;;9.70;99.90;;;;;;6162942;23;20345;-88
2022/04/06 11:54:21;;;;;;;16.88;5.47;;;9.80;99.90;;;;;;6164987;23;20448;-88
2022/04/06 11:56:51;;;;;;;8.90;5.60;;;9.80;99.90;;;;;;6163267;23;20323;-90
2022/04/06 11:59:19;;;;;;;7.35;5.22;;;9.80;99.90;;;;;;6138743;23;20017;-89
2022/04/06 12:01:47;;;;;;;5.55;4.47;;;9.80;99.90;;;;;;6162906;23;20075;-89
2022/04/06 12:04:19;;;;;;;7.13;5.00;;;9.80;99.90;;;;;;6162555;23;20032;-90
2022/04/06 12:06:45;;;;;;;7.88;5.18;;;9.70;99.90;;;;;;6163016;23;20021;-89
2022/04/06 12:09:11;;;;;;;;;;;9.70;99.90;;;;;;6187737;23;20012;-89
2022/04/06 12:11:39;;;;;;;9.68;5.18;;;9.60;99.90;;;;;;6138946;23;19916;-89
2022/04/06 12:14:06;;;;;;;9.48;4.28;;;9.60;99.90;;;;;;6187583;23;20020;-89
2022/04/06 12:16:33;;;;;;;5.78;4.40;;;9.60;99.90;;;;;;6187934;23;20345;-89
2022/04/06 12:18:59;;;;;;;13.20;5.68;;;9.60;99.90;;;;;;6162336;23;20052;-89
2022/04/06 12:21:29;;;;;;;8.60;5.00;;;9.70;99.90;;;;;;6163409;23;20013;-89
2022/04/06 12:23:55;;;;;;;7.15;4.97;;;9.70;99.90;;;;;;6187093;23;20016;-88
2022/04/06 12:26:22;;;;;;;6.60;5.63;;;9.80;99.90;;;;;;6163253;23;20023;-89
2022/04/06 12:28:56;;;;;;;6.85;4.85;;;9.90;99.90;;;;;;6163305;23;20020;-89
2022/04/06 12:31:35;;;;;;;9.18;5.05;;;9.90;99.90;;;;;;6165668;23;20043;-90
2022/04/06 12:34:04;;;;;;;11.57;5.60;;;9.90;99.90;;;;;;6188557;23;20017;-90
2022/04/06 12:36:30;;;;;;;10.07;5.03;;;10.00;99.90;;;;;;6164250;23;20020;-89
2022/04/06 12:39:02;;;;;;;5.57;4.53;;;10.00;99.90;;;;;;6186877;23;20017;-89
2022/04/06 12:41:30;;;;;;;10.52;5.88;;;10.10;99.90;;;;;;6162959;23;20028;-90
2022/04/06 12:43:56;;;;;;;6.00;5.22;;;10.20;99.90;;;;;;6138074;23;20453;-87
2022/04/06 12:46:42;;;;;;;4.43;4.03;;;10.30;99.90;;;;;;6162503;23;20028;-90
2022/04/06 12:49:42;;;;;;;8.65;4.53;;;9.60;99.90;;;;;;6213298;23;20122;-89
2022/04/06 12:52:26;;;;;;;5.88;4.93;;;10.70;99.90;;;;;;6108487;23;20017;-90
2022/04/06 12:55:00;;;;;;;6.45;4.63;;;10.90;99.90;;;;;;6187685;23;20021;-91
2022/04/06 12:57:26;;;;;;;8.55;4.18;;;10.90;99.90;;;;;;6187813;23;20066;-89
2022/04/06 13:00:08;;;;;;;4.77;4.23;;;9.90;99.90;;;;;;6187822;23;20051;-89
2022/04/06 13:02:38;;;;;;;6.25;3.63;;;10.80;99.90;;;;;;6162549;23;20095;-90
2022/04/06 13:05:11;;;;;;;7.32;4.85;;;10.70;99.90;;;;;;6162200;23;20460;-90
2022/04/06 13:07:42;;;;;;;7.18;4.55;;;10.80;99.90;;;;;;6163285;23;20060;-90
2022/04/06 13:10:10;;;;;;;5.93;3.90;;;10.80;99.90;;;;;;6161780;23;20440;-89
2022/04/06 13:12:37;;;;;;;5.13;3.90;;;10.90;99.90;;;;;;6187781;23;20548;-90
2022/04/06 13:15:05;;;;;;;6.93;4.70;;;10.90;99.90;;;;;;6138990;23;20056;-90
2022/04/06 13:17:31;;;;;;;8.50;4.28;;;11.00;99.90;;;;;;6189604;23;20051;-89
2022/04/06 13:19:58;;;;;;;7.43;4.10;;;10.90;99.90;;;;;;6164287;23;20017;-90
2022/04/06 13:22:26;;;;;;;9.70;4.03;;;10.80;99.90;;;;;;6188691;23;20029;-89
2022/04/06 13:24:52;;;;;;;7.85;4.53;;;10.60;99.90;;;;;;6164653;23;20021;-90
2022/04/06 13:27:18;;;;;;;8.10;4.07;;;10.60;99.90;;;;;;6138911;23;20472;-90
2022/04/06 13:29:44;;;;;;;6.15;3.97;;;10.50;99.90;;;;;;6189517;23;20517;-90
2022/04/06 13:32:10;;;;;;;5.63;4.37;;;10.40;99.90;;;;;;6139025;23;20051;-89
2022/04/06 13:34:36;;;;;;;10.33;5.80;;;10.40;99.90;;;;;;6189205;23;20266;-86
2022/04/06 13:37:03;;;;;;;9.98;5.72;;;10.30;99.90;;;;;;6163419;23;20255;-87
2022/04/06 13:39:31;;;;;;;6.95;5.03;;;10.20;99.90;;;;;;6164048;23;20326;-85
2022/04/06 13:41:57;;;;;;;6.70;4.63;;;10.20;99.90;;;;;;6163983;23;20349;-86
2022/04/06 13:44:25;;;;;;;6.97;4.78;;;10.10;99.90;;;;;;6188432;23;20574;-86
2022/04/06 13:46:56;;;;;;;7.22;5.15;;;10.10;99.90;;;;;;6164187;23;20012;-86
2022/04/06 13:49:22;;;;;;;5.57;3.97;;;10.10;99.90;;;;;;6188256;23;20149;-86
2022/04/06 13:51:50;;;;;;;5.38;4.63;;;10.00;99.90;;;;;;6215473;23;20432;-86
2022/04/06 13:54:19;;;;;;;6.65;4.93;;;10.00;99.90;;;;;;6213239;23;20048;-86
2022/04/06 13:56:46;;;;;;;7.53;5.57;;;9.90;99.90;;;;;;6164339;23;20015;-86
2022/04/06 13:59:15;;;;;;;10.05;5.05;;;9.90;99.90;;;;;;6163724;23;20048;-85
2022/04/06 14:01:42;;;;;;;6.63;4.85;;;8.90;99.90;;;;;;6188694;23;20028;-87
2022/04/06 14:04:09;;;;;;;6.38;5.20;;;9.70;99.90;;;;;;6163423;23;20095;-87
2022/04/06 14:06:37;;;;;;;;;;;9.70;99.90;;;;;;6164129;23;20020;-87
2022/04/06 14:09:12;;;;;;;8.20;4.68;;;9.60;99.90;;;;;;6188387;23;20001;-87
2022/04/06 14:11:39;;;;;;;5.45;3.67;;;9.60;99.90;;;;;;6163733;23;20056;-88
2022/04/06 14:14:05;;;;;;;7.15;4.57;;;9.60;99.90;;;;;;6188804;23;20354;-88
2022/04/06 14:16:31;;;;;;;4.57;3.63;;;9.50;99.90;;;;;;6215793;23;20021;-88
2022/04/06 14:18:59;;;;;;;3.20;2.72;;;9.40;99.90;;;;;;6164049;23;20079;-89
2022/04/06 14:21:34;;;;;;;3.63;2.97;;;9.30;99.90;;;;;;6188126;23;20017;-88
2022/04/06 14:24:04;;;;;;;3.92;3.47;;;9.30;99.90;;;;;;6214080;23;20103;-88
2022/04/06 14:26:31;;;;;;;4.22;3.45;;;9.30;99.90;;;;;;6188014;23;20013;-88
2022/04/06 14:28:57;;;;;;;6.22;3.85;;;9.20;99.90;;;;;;6189941;23;20016;-86
2022/04/06 14:31:23;;;;;;;6.50;4.23;;;9.20;99.90;;;;;;6162640;23;20012;-86
2022/04/06 14:33:49;;;;;;;5.75;3.40;;;9.20;99.90;;;;;;6163803;23;20025;-87
2022/04/06 14:36:14;;;;;;;4.70;3.10;;;9.20;99.90;;;;;;6138176;23;20012;-88
2022/04/06 14:38:40;;;;;;;3.33;2.67;;;9.10;99.90;;;;;;6187886;23;20055;-87
2022/04/06 14:41:08;;;;;;;3.80;3.07;;;9.10;99.90;;;;;;6214659;23;20016;-88
2022/04/06 14:43:35;;;;;;;5.78;2.95;;;9.10;99.90;;;;;;6162299;23;20016;-87
2022/04/06 14:46:02;;;;;;;3.28;2.70;;;9.10;99.90;;;;;;6214568;23;20016;-87
2022/04/06 14:48:28;;;;;;;3.40;2.58;;;9.20;99.90;;;;;;6216419;23;20474;-85
2022/04/06 14:50:54;;;;;;;2.97;2.07;;;9.30;99.90;;;;;;6244758;23;20095;-87
2022/04/06 14:53:20;;;;;;;2.40;1.97;;;9.40;99.90;;;;;;6192391;23;20051;-87
2022/04/06 14:55:46;;;;;;;2.40;2.00;;;9.30;99.90;;;;;;6193326;23;20444;-87
2022/04/06 14:58:13;;;;;;;2.30;1.47;;;9.30;99.90;;;;;;6217886;23;20016;-88
2022/04/06 15:00:39;;;;;;;2.90;1.85;;;9.20;99.90;;;;;;6168459;23;20028;-86
2022/04/06 15:03:07;;;;;;;2.38;2.17;;;9.30;99.90;;;;;;6217951;23;20298;-88
2022/04/06 15:05:34;;;;;;;3.20;2.03;;;9.30;99.90;;;;;;6244121;23;20095;-87
2022/04/06 15:08:02;;;;;;;4.25;2.03;;;9.30;99.90;;;;;;6245076;23;20105;-87
2022/04/06 15:10:28;;;;;;;2.75;2.55;;;9.30;99.90;;;;;;6244217;23;20056;-87
2022/04/06 15:12:58;;;;;;;3.92;1.92;;;9.20;99.90;;;;;;6167660;23;20039;-87
2022/04/06 15:15:25;;;;;;;2.67;2.47;;;9.20;99.90;;;;;;6217407;23;20389;-87
2022/04/06 15:17:51;;;;;;;4.75;3.17;;;9.20;99.90;;;;;;6244663;23;20074;-86
2022/04/06 15:20:18;;;;;;;5.90;3.90;;;9.10;99.90;;;;;;6192020;23;20024;-87
2022/04/06 15:22:45;;;;;;;7.30;2.47;;;9.10;99.90;;;;;;6217867;23;20027;-87
2022/04/06 15:25:11;;;;;;;4.30;3.38;;;9.10;99.90;;;;;;6217488;23;20463;-86
2022/04/06 15:27:36;;;;;;;9.80;4.43;;;9.20;99.90;;;;;;6217264;23;20024;-86
2022/04/06 15:30:04;;;;;;;6.37;3.40;;;9.10;99.90;;;;;;6218070;23;20022;-86
2022/04/06 15:32:30;;;;;;;8.93;3.92;;;9.10;99.90;;;;;;6191826;23;20020;-85
2022/04/06 15:37:39;;;;;;;5.55;3.47;;;9.20;99.90;;;;;;6244110;23;20337;-85
2022/04/06 15:40:07;;;;;;;5.90;4.03;;;9.20;99.90;;;;;;6245084;23;20016;-85
2022/04/06 15:42:33;;;;;;;5.30;3.85;;;9.30;99.90;;;;;;6191940;23;20016;-86
2022/04/06 15:45:01;;;;;;;6.43;4.32;;;9.30;99.90;;;;;;6218234;23;20103;-86
2022/04/06 15:47:27;;;;;;;5.60;4.10;;;9.30;99.90;;;;;;6191897;23;20019;-86
2022/04/06 15:49:54;;;;;;;;;;;9.30;99.90;;;;;;6218799;23;20035;-86
2022/04/06 15:52:20;;;;;;;4.65;3.78;;;9.30;99.90;;;;;;6192198;23;19915;-88
2022/04/06 15:54:47;;;;;;;5.63;4.07;;;9.30;99.90;;;;;;6218180;23;20043;-85
2022/04/06 15:57:16;;;;;;;3.63;3.25;;;9.30;99.90;;;;;;6193787;23;20023;-84
2022/04/06 15:59:42;;;;;;;3.75;3.03;;;9.20;99.90;;;;;;6143437;23;20023;-84
2022/04/06 16:02:09;;;;;;;6.72;3.47;;;9.20;99.90;;;;;;6244998;23;20060;-85
2022/04/06 16:04:35;;;;;;;4.47;3.33;;;9.30;99.90;;;;;;6217066;23;20012;-85
2022/04/06 16:07:00;;;;;;;4.57;3.33;;;9.20;99.90;;;;;;6167918;23;20095;-85